Time;durP1;ratioP1;P1;durP2;ratioP2;P2;SDS_P1;SDS_P2;PMS_P1;PMS_P2;Temp;Humidity;BMP_temperature;BMP_pressure;BME280_temperature;BME280_humidity;BME280_pressure;Samples;Min_cycle;Max_cycle;Signal;HPM_P1;HPM_P2
2021/12/16 00:07:15;;;;;;;6.50;4.03;;;;;;;;;;5062997;28;20131;-53
2021/12/16 00:10:00;;;;;;;6.70;4.15;;;;;;;;;;5063990;28;20029;-53
2021/12/16 00:34:14;;;;;;;7.20;4.22;;;;;;;;;;5071340;28;20522;-52
2021/12/16 00:36:41;;;;;;;6.07;4.00;;;;;;;;;;5072338;28;20025;-53
2021/12/16 00:39:09;;;;;;;7.53;3.97;;;;;;;;;;5072975;28;20067;-54
2021/12/16 00:41:37;;;;;;;6.43;4.20;;;;;;;;;;5073129;28;20025;-52
2021/12/16 00:44:51;;;;;;;7.20;4.00;;;;;;;;;;5072076;28;20032;-52
2021/12/16 00:54:44;;;;;;;9.63;5.57;;;;;;;;;;5071368;28;20525;-53
2021/12/16 00:57:14;;;;;;;9.48;4.97;;;;;;;;;;5072693;28;20078;-52
2021/12/16 00:59:43;;;;;;;7.35;4.82;;;;;;;;;;5072612;28;20028;-53
2021/12/16 01:08:09;;;;;;;8.70;4.80;;;;;;;;;;5072843;28;20120;-53
2021/12/16 01:57:10;;;;;;;7.30;3.95;;;;;;;;;;5068735;28;20036;-53
2021/12/16 01:59:39;;;;;;;7.60;4.53;;;;;;;;;;5068853;28;20104;-54
2021/12/16 02:02:21;;;;;;;6.65;3.17;;;;;;;;;;5068037;28;20025;-54
2021/12/16 02:10:36;;;;;;;5.50;3.33;;;;;;;;;;5055724;28;20060;-52
2021/12/16 02:13:46;;;;;;;5.20;3.83;;;;;;;;;;5068058;28;20032;-52
2021/12/16 02:30:07;;;;;;;5.88;3.25;;;;;;;;;;5067749;28;20112;-48
2021/12/16 02:37:36;;;;;;;5.40;3.65;;;;;;;;;;5067647;28;20499;-51
2021/12/16 02:40:05;;;;;;;3.88;3.00;;;;;;;;;;5068197;28;20032;-54
2021/12/16 02:42:54;;;;;;;4.53;3.05;;;;;;;;;;5067231;28;20029;-52
2021/12/16 02:50:51;;;;;;;3.47;2.67;;;;;;;;;;5067901;28;20094;-54
2021/12/16 02:53:17;;;;;;;4.45;3.22;;;;;;;;;;5066350;28;20461;-54
2021/12/16 02:55:43;;;;;;;4.35;2.78;;;;;;;;;;5067227;28;20492;-53
2021/12/16 02:58:09;;;;;;;3.78;2.67;;;;;;;;;;5066872;28;20090;-51
2021/12/16 03:00:40;;;;;;;4.40;3.08;;;;;;;;;;5067887;28;20522;-52
2021/12/16 03:03:06;;;;;;;2.88;2.22;;;;;;;;;;5065784;28;20032;-53
2021/12/16 03:05:32;;;;;;;3.45;2.22;;;;;;;;;;5067341;28;20739;-53
2021/12/16 03:07:59;;;;;;;4.40;2.60;;;;;;;;;;5066494;28;20066;-53
2021/12/16 03:18:27;;;;;;;2.67;1.83;;;;;;;;;;5063774;28;20115;-53
2021/12/16 03:20:59;;;;;;;2.72;2.10;;;;;;;;;;5067182;28;20035;-53
2021/12/16 03:36:48;;;;;;;2.30;1.75;;;;;;;;;;5067087;28;20085;-51
2021/12/16 03:39:15;;;;;;;3.15;1.92;;;;;;;;;;5064926;28;20027;-51
2021/12/16 03:41:42;;;;;;;2.75;1.90;;;;;;;;;;5066506;28;20029;-53
2021/12/16 03:44:11;;;;;;;2.17;1.55;;;;;;;;;;5066756;28;20029;-52
2021/12/16 03:46:39;;;;;;;2.88;1.90;;;;;;;;;;5066281;28;20028;-54
2021/12/16 03:49:10;;;;;;;2.05;1.63;;;;;;;;;;5065844;28;20029;-52
2021/12/16 03:51:42;;;;;;;2.55;1.73;;;;;;;;;;5065522;28;20040;-54
2021/12/16 03:54:11;;;;;;;1.90;1.60;;;;;;;;;;5063943;28;20032;-52
2021/12/16 03:56:38;;;;;;;1.90;1.60;;;;;;;;;;5066190;28;20025;-53
2021/12/16 03:59:07;;;;;;;2.92;2.33;;;;;;;;;;5067203;28;20115;-53
2021/12/16 04:01:33;;;;;;;2.67;1.95;;;;;;;;;;5066086;28;20028;-53
2021/12/16 04:04:00;;;;;;;2.53;2.03;;;;;;;;;;5065119;28;20050;-53
2021/12/16 04:06:28;;;;;;;2.53;1.95;;;;;;;;;;5066067;28;20384;-53
2021/12/16 04:08:54;;;;;;;2.58;1.67;;;;;;;;;;5066364;28;20047;-54
2021/12/16 04:11:24;;;;;;;2.08;1.80;;;;;;;;;;5066339;28;20474;-53
2021/12/16 04:13:59;;;;;;;3.17;2.33;;;;;;;;;;5065507;28;20044;-52
2021/12/16 04:16:33;;;;;;;2.60;2.05;;;;;;;;;;5065780;28;20074;-53
2021/12/16 04:19:00;;;;;;;2.10;1.75;;;;;;;;;;5066230;28;20117;-52
2021/12/16 04:21:27;;;;;;;2.35;1.95;;;;;;;;;;5046156;28;20025;-53
2021/12/16 04:23:55;;;;;;;3.05;2.05;;;;;;;;;;5065979;28;20033;-53
2021/12/16 04:26:22;;;;;;;3.20;1.80;;;;;;;;;;5066009;28;20020;-53
2021/12/16 04:28:48;;;;;;;2.33;1.95;;;;;;;;;;5065892;28;20086;-51
2021/12/16 04:31:14;;;;;;;2.50;1.73;;;;;;;;;;5066133;28;20052;-53
2021/12/16 04:33:40;;;;;;;3.88;2.55;;;;;;;;;;5064774;28;20037;-51
2021/12/16 04:36:08;;;;;;;3.33;2.33;;;;;;;;;;5065475;28;20068;-53
2021/12/16 04:38:35;;;;;;;3.72;2.45;;;;;;;;;;5066178;28;20033;-53
2021/12/16 04:41:01;;;;;;;4.15;2.60;;;;;;;;;;5066395;28;20082;-52
2021/12/16 04:43:38;;;;;;;3.22;2.30;;;;;;;;;;5064573;28;20377;-53
2021/12/16 04:46:05;;;;;;;3.28;1.92;;;;;;;;;;5066690;28;20060;-51
2021/12/16 04:48:31;;;;;;;4.63;2.70;;;;;;;;;;5065645;28;20020;-52
2021/12/16 04:50:57;;;;;;;7.10;3.80;;;;;;;;;;5066341;28;20056;-52
2021/12/16 04:53:24;;;;;;;5.38;3.13;;;;;;;;;;5064633;28;20115;-52
2021/12/16 04:55:50;;;;;;;5.35;3.33;;;;;;;;;;5064726;28;20410;-50
2021/12/16 04:58:16;;;;;;;5.93;3.72;;;;;;;;;;5064842;28;20112;-52
2021/12/16 05:00:42;;;;;;;6.07;3.15;;;;;;;;;;5065539;28;20682;-53
2021/12/16 05:03:08;;;;;;;5.50;3.80;;;;;;;;;;5064784;28;20028;-52
2021/12/16 05:05:35;;;;;;;4.78;3.28;;;;;;;;;;5065200;28;20032;-53
2021/12/16 05:08:01;;;;;;;4.70;2.90;;;;;;;;;;5066473;28;20045;-52
2021/12/16 05:10:28;;;;;;;4.40;2.67;;;;;;;;;;5065514;28;20024;-52
2021/12/16 05:12:58;;;;;;;4.32;2.65;;;;;;;;;;5062183;28;20060;-53
2021/12/16 05:15:31;;;;;;;3.88;2.47;;;;;;;;;;5064589;28;20060;-53
2021/12/16 05:18:00;;;;;;;4.07;2.88;;;;;;;;;;5068289;28;20028;-53
2021/12/16 05:20:30;;;;;;;4.28;2.95;;;;;;;;;;5068975;28;20036;-52
2021/12/16 05:28:18;;;;;;;3.80;2.50;;;;;;;;;;5067945;28;20062;-53
2021/12/16 05:30:44;;;;;;;3.78;2.65;;;;;;;;;;5069007;28;20097;-52
2021/12/16 05:33:10;;;;;;;2.85;2.38;;;;;;;;;;5067312;28;20040;-53
2021/12/16 05:35:37;;;;;;;2.83;1.95;;;;;;;;;;5067426;28;20029;-54
2021/12/16 05:38:03;;;;;;;2.90;2.20;;;;;;;;;;5069772;28;20031;-53
2021/12/16 05:40:29;;;;;;;2.65;1.98;;;;;;;;;;5068946;28;20036;-53
2021/12/16 05:42:59;;;;;;;3.63;2.42;;;;;;;;;;5067851;28;20081;-52
2021/12/16 05:45:25;;;;;;;2.67;2.00;;;;;;;;;;5068660;28;20123;-53
2021/12/16 05:47:52;;;;;;;4.32;2.67;;;;;;;;;;5068764;28;20013;-52
2021/12/16 05:50:18;;;;;;;4.03;2.78;;;;;;;;;;5068834;28;20070;-51
2021/12/16 05:52:45;;;;;;;4.63;3.30;;;;;;;;;;5067484;28;20070;-53
2021/12/16 05:55:12;;;;;;;3.83;2.70;;;;;;;;;;5068990;28;20066;-52
2021/12/16 05:57:39;;;;;;;3.85;2.42;;;;;;;;;;5068399;28;20031;-54
2021/12/16 06:00:07;;;;;;;3.63;2.47;;;;;;;;;;5069446;28;20467;-53
2021/12/16 06:02:33;;;;;;;2.90;2.05;;;;;;;;;;5067118;28;20403;-52
2021/12/16 06:05:00;;;;;;;5.72;3.38;;;;;;;;;;5068627;28;20040;-53
2021/12/16 06:07:26;;;;;;;7.60;4.45;;;;;;;;;;5068278;28;20039;-55
2021/12/16 06:09:52;;;;;;;7.07;4.28;;;;;;;;;;5067370;28;20028;-54
2021/12/16 06:12:18;;;;;;;6.32;4.00;;;;;;;;;;5067169;28;20028;-53
2021/12/16 06:15:02;;;;;;;6.28;3.97;;;;;;;;;;5067133;28;20040;-52
2021/12/16 06:28:16;;;;;;;2.80;2.20;;;;;;;;;;5067684;28;20074;-53
2021/12/16 06:30:43;;;;;;;3.88;2.67;;;;;;;;;;5067220;28;20032;-53
2021/12/16 06:33:12;;;;;;;3.17;2.65;;;;;;;;;;5066742;28;20559;-54
2021/12/16 06:35:38;;;;;;;2.85;2.20;;;;;;;;;;5067931;28;20062;-53
2021/12/16 06:38:05;;;;;;;3.17;2.45;;;;;;;;;;5066867;28;20025;-54
2021/12/16 06:40:31;;;;;;;3.38;2.40;;;;;;;;;;5064689;28;20407;-53
2021/12/16 06:43:00;;;;;;;3.13;2.25;;;;;;;;;;5066849;28;20037;-54
2021/12/16 06:45:27;;;;;;;2.58;1.88;;;;;;;;;;5067044;28;20036;-54
2021/12/16 06:48:02;;;;;;;2.55;2.17;;;;;;;;;;5067658;28;20023;-52
2021/12/16 06:50:40;;;;;;;2.20;1.92;;;;;;;;;;5066723;28;20035;-53
2021/12/16 06:53:09;;;;;;;4.25;2.53;;;;;;;;;;5067625;28;20124;-54
2021/12/16 06:55:42;;;;;;;3.33;2.58;;;;;;;;;;5065822;28;20062;-54
2021/12/16 06:59:03;;;;;;;4.78;2.80;;;;;;;;;;5059466;28;20056;-53
2021/12/16 07:01:11;;;;;;;2.88;2.00;;;;;;;;;;5045197;28;20124;-54
2021/12/16 07:03:49;;;;;;;3.72;2.40;;;;;;;;;;5060270;28;20032;-53
2021/12/16 07:06:20;;;;;;;6.65;3.80;;;;;;;;;;5066903;28;20071;-53
2021/12/16 07:08:47;;;;;;;6.38;4.00;;;;;;;;;;5066628;28;20044;-52
2021/12/16 07:11:13;;;;;;;6.43;4.00;;;;;;;;;;5065218;28;20056;-54
2021/12/16 07:13:42;;;;;;;5.97;3.83;;;;;;;;;;5065795;28;20032;-53
2021/12/16 07:16:09;;;;;;;6.00;3.95;;;;;;;;;;5066474;28;20028;-53
2021/12/16 07:18:35;;;;;;;5.40;3.63;;;;;;;;;;5071016;28;20033;-52
2021/12/16 07:21:02;;;;;;;5.95;3.50;;;;;;;;;;5067256;28;20070;-54
2021/12/16 07:23:29;;;;;;;5.53;3.72;;;;;;;;;;5067095;28;20590;-54
2021/12/16 07:25:56;;;;;;;4.55;3.00;;;;;;;;;;5066738;28;20032;-53
2021/12/16 07:28:22;;;;;;;5.00;3.22;;;;;;;;;;5067166;28;20708;-52
2021/12/16 07:30:48;;;;;;;4.03;2.85;;;;;;;;;;5066461;28;20404;-53
2021/12/16 07:33:16;;;;;;;4.22;2.63;;;;;;;;;;5066562;28;20060;-53
2021/12/16 07:35:43;;;;;;;4.75;2.83;;;;;;;;;;5066023;28;20143;-54
2021/12/16 07:38:09;;;;;;;4.07;2.78;;;;;;;;;;5065906;28;20028;-54
2021/12/16 07:40:36;;;;;;;4.57;2.88;;;;;;;;;;5065139;28;20187;-54
2021/12/16 07:45:32;;;;;;;3.63;2.65;;;;;;;;;;5063234;28;20049;-54
2021/12/16 07:47:58;;;;;;;4.53;3.40;;;;;;;;;;5066655;28;20025;-54
2021/12/16 07:50:24;;;;;;;4.78;3.15;;;;;;;;;;5066400;28;20107;-54
2021/12/16 07:52:50;;;;;;;4.10;2.80;;;;;;;;;;5065857;28;20028;-54
2021/12/16 07:55:17;;;;;;;3.85;2.67;;;;;;;;;;5066852;28;20031;-54
2021/12/16 07:57:44;;;;;;;3.72;2.65;;;;;;;;;;5063776;28;20032;-54
2021/12/16 08:00:31;;;;;;;3.58;2.72;;;;;;;;;;5065747;28;20048;-53
2021/12/16 08:02:57;;;;;;;3.20;2.63;;;;;;;;;;5062734;28;20458;-52
2021/12/16 08:05:26;;;;;;;3.40;2.65;;;;;;;;;;5074802;28;20043;-52
2021/12/16 08:07:53;;;;;;;4.57;3.15;;;;;;;;;;5080347;28;20023;-53
2021/12/16 08:10:20;;;;;;;5.75;3.67;;;;;;;;;;5062088;28;20027;-54
2021/12/16 08:12:46;;;;;;;3.53;2.80;;;;;;;;;;5066109;28;20044;-53
2021/12/16 08:15:15;;;;;;;5.38;3.20;;;;;;;;;;5064232;28;20033;-53
2021/12/16 08:17:41;;;;;;;4.32;3.03;;;;;;;;;;5065267;28;20094;-53
2021/12/16 08:20:09;;;;;;;5.78;3.13;;;;;;;;;;5064884;28;20060;-54
2021/12/16 08:22:37;;;;;;;8.02;3.47;;;;;;;;;;5064913;28;20514;-53
2021/12/16 08:25:03;;;;;;;6.68;3.60;;;;;;;;;;5065557;28;20108;-53
2021/12/16 08:27:30;;;;;;;7.43;3.95;;;;;;;;;;5065472;28;20035;-53
2021/12/16 08:29:57;;;;;;;7.35;3.33;;;;;;;;;;5065475;28;20522;-53
2021/12/16 08:32:24;;;;;;;7.78;4.07;;;;;;;;;;5065462;28;20021;-53
2021/12/16 08:34:50;;;;;;;5.82;3.58;;;;;;;;;;5065476;28;20419;-54
2021/12/16 08:37:17;;;;;;;7.07;3.95;;;;;;;;;;5065282;28;20032;-57
2021/12/16 08:39:44;;;;;;;7.25;4.00;;;;;;;;;;5064998;28;20039;-53
2021/12/16 08:42:10;;;;;;;6.20;4.05;;;;;;;;;;5064000;28;20450;-54
2021/12/16 08:44:37;;;;;;;6.15;4.20;;;;;;;;;;5066053;28;20035;-54
2021/12/16 08:47:06;;;;;;;5.10;3.67;;;;;;;;;;5066548;28;20637;-53
2021/12/16 08:49:33;;;;;;;5.68;3.53;;;;;;;;;;5064964;28;20040;-50
2021/12/16 08:52:00;;;;;;;5.55;3.58;;;;;;;;;;5070490;28;20074;-54
2021/12/16 08:54:26;;;;;;;4.97;3.05;;;;;;;;;;5068394;28;20041;-54
2021/12/16 08:56:52;;;;;;;4.53;3.38;;;;;;;;;;5070312;28;20585;-54
2021/12/16 08:59:19;;;;;;;4.78;3.28;;;;;;;;;;5065591;28;20033;-55
2021/12/16 09:01:47;;;;;;;4.18;3.10;;;;;;;;;;5069712;28;20057;-54
2021/12/16 09:04:15;;;;;;;7.32;3.95;;;;;;;;;;5068427;28;20107;-54
2021/12/16 09:06:41;;;;;;;4.75;3.38;;;;;;;;;;5063068;28;20017;-54
2021/12/16 09:09:08;;;;;;;4.57;3.13;;;;;;;;;;5066215;28;20028;-54
2021/12/16 09:11:40;;;;;;;4.80;3.10;;;;;;;;;;5069682;28;20024;-53
2021/12/16 09:14:06;;;;;;;6.07;3.83;;;;;;;;;;5067871;28;20035;-55
2021/12/16 09:16:34;;;;;;;9.13;4.75;;;;;;;;;;5066948;28;20499;-54
2021/12/16 09:19:01;;;;;;;8.18;4.78;;;;;;;;;;5048732;28;20119;-55
2021/12/16 09:21:30;;;;;;;8.02;4.43;;;;;;;;;;5056623;28;20028;-55
2021/12/16 09:23:58;;;;;;;9.98;5.28;;;;;;;;;;5067733;28;20028;-54
2021/12/16 09:26:25;;;;;;;13.05;6.15;;;;;;;;;;5066177;28;20063;-55
2021/12/16 09:28:51;;;;;;;12.20;6.10;;;;;;;;;;5067954;28;20399;-53
2021/12/16 09:31:20;;;;;;;11.95;6.00;;;;;;;;;;5065716;28;20473;-55
2021/12/16 09:33:49;;;;;;;10.18;5.40;;;;;;;;;;5067436;28;20099;-54
2021/12/16 09:36:17;;;;;;;14.18;7.00;;;;;;;;;;5065624;28;20472;-54
2021/12/16 09:38:44;;;;;;;12.65;6.70;;;;;;;;;;5067118;28;20280;-53
2021/12/16 09:41:10;;;;;;;10.98;6.05;;;;;;;;;;5067538;28;20060;-55
2021/12/16 09:43:39;;;;;;;8.82;5.15;;;;;;;;;;5063804;28;20051;-54
2021/12/16 09:46:07;;;;;;;9.00;4.95;;;;;;;;;;5080677;28;20028;-55
2021/12/16 09:48:35;;;;;;;8.85;5.75;;;;;;;;;;5086281;28;20499;-55
2021/12/16 09:51:04;;;;;;;7.80;4.63;;;;;;;;;;5067743;28;20035;-55
2021/12/16 09:53:31;;;;;;;8.35;4.90;;;;;;;;;;5067540;28;20419;-55
2021/12/16 09:56:00;;;;;;;6.68;4.28;;;;;;;;;;5066992;28;20474;-54
2021/12/16 09:58:36;;;;;;;8.07;4.80;;;;;;;;;;5053552;28;20033;-54
2021/12/16 10:01:03;;;;;;;7.78;4.60;;;;;;;;;;5060338;28;20047;-53
2021/12/16 10:03:30;;;;;;;6.28;3.85;;;;;;;;;;5066203;28;20032;-54
2021/12/16 10:05:57;;;;;;;5.60;4.05;;;;;;;;;;5066442;28;20035;-54
2021/12/16 10:08:23;;;;;;;5.60;3.42;;;;;;;;;;5048289;28;20107;-54
2021/12/16 10:10:50;;;;;;;6.15;3.92;;;;;;;;;;5065909;28;20023;-54
2021/12/16 10:13:33;;;;;;;4.90;3.55;;;;;;;;;;5065635;28;20519;-54
2021/12/16 10:18:29;;;;;;;5.15;3.75;;;;;;;;;;5066070;28;20507;-57
2021/12/16 10:20:58;;;;;;;5.57;3.55;;;;;;;;;;5066555;28;20403;-54
2021/12/16 10:23:41;;;;;;;4.07;3.05;;;;;;;;;;5066554;28;20094;-54
2021/12/16 10:26:09;;;;;;;4.57;3.33;;;;;;;;;;5065028;28;20609;-53
2021/12/16 10:28:43;;;;;;;4.47;3.00;;;;;;;;;;5067634;28;20024;-52
2021/12/16 10:31:11;;;;;;;3.45;2.50;;;;;;;;;;5067847;28;20028;-50
2021/12/16 10:33:40;;;;;;;3.53;2.80;;;;;;;;;;5067397;28;20036;-49
2021/12/16 10:36:12;;;;;;;3.75;2.75;;;;;;;;;;5066476;28;20067;-52
2021/12/16 10:38:59;;;;;;;4.10;2.80;;;;;;;;;;5067006;28;20036;-50
2021/12/16 10:41:26;;;;;;;3.95;2.72;;;;;;;;;;5066718;28;20020;-52
2021/12/16 10:44:05;;;;;;;4.53;2.95;;;;;;;;;;5073897;28;20068;-52
2021/12/16 10:46:33;;;;;;;3.38;2.45;;;;;;;;;;5076519;28;20176;-52
2021/12/16 10:49:01;;;;;;;6.30;2.83;;;;;;;;;;5068160;28;20025;-53
2021/12/16 10:51:29;;;;;;;5.05;3.20;;;;;;;;;;5065509;28;20074;-52
2021/12/16 10:53:58;;;;;;;3.17;2.40;;;;;;;;;;5064599;28;20826;-51
2021/12/16 10:56:36;;;;;;;4.63;2.88;;;;;;;;;;5064480;28;20269;-54
2021/12/16 10:59:11;;;;;;;3.80;2.42;;;;;;;;;;5064315;28;20027;-53
2021/12/16 11:01:43;;;;;;;3.95;2.88;;;;;;;;;;5070006;28;20094;-49
2021/12/16 11:04:29;;;;;;;3.40;2.58;;;;;;;;;;5064989;28;20032;-50
2021/12/16 11:06:58;;;;;;;4.25;2.75;;;;;;;;;;5049655;28;20040;-52
2021/12/16 11:09:24;;;;;;;3.00;2.25;;;;;;;;;;5046502;28;20071;-53
2021/12/16 11:12:06;;;;;;;4.28;3.08;;;;;;;;;;5060424;28;20029;-49
2021/12/16 11:14:33;;;;;;;3.15;2.28;;;;;;;;;;5066903;28;20507;-52
2021/12/16 11:17:00;;;;;;;4.32;2.85;;;;;;;;;;5067306;28;20029;-51
2021/12/16 11:19:45;;;;;;;3.03;2.22;;;;;;;;;;5066953;28;20051;-52
2021/12/16 11:22:10;;;;;;;;;;;;;;;;;;5065769;28;20028;-51
2021/12/16 11:24:37;;;;;;;2.80;2.22;;;;;;;;;;5066623;28;19916;-53
2021/12/16 11:27:22;;;;;;;3.58;2.53;;;;;;;;;;5065910;28;20138;-51
2021/12/16 11:29:48;;;;;;;3.15;2.25;;;;;;;;;;5062090;28;20028;-52
2021/12/16 11:32:34;;;;;;;3.83;2.53;;;;;;;;;;5066022;28;20020;-53
2021/12/16 11:35:00;;;;;;;3.53;2.38;;;;;;;;;;5067485;28;20086;-50
2021/12/16 11:37:26;;;;;;;3.30;2.53;;;;;;;;;;5065590;28;20039;-53
2021/12/16 11:39:52;;;;;;;3.10;2.40;;;;;;;;;;5066652;28;20040;-52
2021/12/16 11:42:26;;;;;;;3.08;2.22;;;;;;;;;;5066029;28;20098;-49
2021/12/16 11:44:52;;;;;;;3.80;2.50;;;;;;;;;;5066262;28;20487;-50
2021/12/16 11:47:23;;;;;;;3.10;2.20;;;;;;;;;;5063369;28;20024;-51
2021/12/16 11:50:01;;;;;;;2.80;2.10;;;;;;;;;;5066470;28;20024;-49
2021/12/16 11:52:32;;;;;;;3.05;2.33;;;;;;;;;;5059771;28;20487;-50
2021/12/16 11:55:00;;;;;;;2.60;2.08;;;;;;;;;;5066159;28;20082;-52
2021/12/16 11:57:26;;;;;;;3.05;2.10;;;;;;;;;;5065338;28;20027;-51
2021/12/16 11:59:58;;;;;;;2.92;2.28;;;;;;;;;;5065246;28;20484;-53
2021/12/16 12:02:24;;;;;;;2.67;2.30;;;;;;;;;;5063391;28;20032;-53
2021/12/16 12:04:51;;;;;;;4.45;2.53;;;;;;;;;;5063611;28;20033;-50
2021/12/16 12:07:18;;;;;;;4.72;3.20;;;;;;;;;;5065621;28;20064;-49
2021/12/16 12:09:50;;;;;;;6.03;3.50;;;;;;;;;;5065626;28;20482;-50
2021/12/16 12:12:16;;;;;;;7.43;4.32;;;;;;;;;;5055879;28;20099;-50
2021/12/16 12:14:43;;;;;;;6.40;3.83;;;;;;;;;;5085682;28;20032;-51
2021/12/16 12:17:16;;;;;;;6.20;3.75;;;;;;;;;;5065627;28;20085;-52
2021/12/16 12:19:46;;;;;;;6.85;4.10;;;;;;;;;;5064349;28;20036;-51
2021/12/16 12:22:14;;;;;;;6.30;3.70;;;;;;;;;;5064706;28;20055;-49
2021/12/16 12:24:45;;;;;;;6.95;3.47;;;;;;;;;;5064007;28;20028;-52
2021/12/16 12:27:22;;;;;;;6.95;3.67;;;;;;;;;;5063645;28;20079;-52
2021/12/16 12:29:51;;;;;;;6.10;3.20;;;;;;;;;;5065967;28;20055;-54
2021/12/16 12:32:21;;;;;;;5.53;3.08;;;;;;;;;;5066054;28;20060;-50
2021/12/16 12:34:49;;;;;;;4.25;2.67;;;;;;;;;;5066151;28;20040;-53
2021/12/16 12:37:18;;;;;;;5.72;2.92;;;;;;;;;;5066158;28;20104;-50
2021/12/16 12:39:46;;;;;;;4.57;2.72;;;;;;;;;;5065754;28;20043;-54
2021/12/16 12:42:13;;;;;;;2.85;2.08;;;;;;;;;;5065915;28;20096;-53
2021/12/16 12:44:39;;;;;;;3.67;2.80;;;;;;;;;;5065311;28;20033;-53
2021/12/16 12:47:07;;;;;;;3.78;2.80;;;;;;;;;;5065982;28;20027;-53
2021/12/16 12:49:33;;;;;;;3.72;2.53;;;;;;;;;;5065807;28;20028;-52
2021/12/16 12:52:19;;;;;;;4.63;2.95;;;;;;;;;;5072192;28;20027;-54
2021/12/16 12:54:57;;;;;;;4.20;2.70;;;;;;;;;;5086007;28;20028;-54
2021/12/16 12:57:25;;;;;;;2.88;2.25;;;;;;;;;;5085805;28;20028;-53
2021/12/16 12:59:51;;;;;;;3.70;2.53;;;;;;;;;;5086294;28;20028;-53
2021/12/16 13:02:19;;;;;;;3.15;2.20;;;;;;;;;;5065847;28;20036;-53
2021/12/16 13:04:48;;;;;;;3.55;2.53;;;;;;;;;;5065324;28;20032;-53
2021/12/16 13:07:15;;;;;;;2.33;1.85;;;;;;;;;;5085478;28;20035;-54
2021/12/16 13:09:43;;;;;;;2.35;1.73;;;;;;;;;;5071548;28;20027;-52
2021/12/16 13:12:27;;;;;;;2.55;1.85;;;;;;;;;;5064207;28;20032;-55
2021/12/16 13:15:03;;;;;;;2.92;2.13;;;;;;;;;;5059411;28;20020;-53
2021/12/16 13:23:23;;;;;;;2.03;1.75;;;;;;;;;;5059142;28;20025;-54
2021/12/16 13:23:34;;;;;;;2.20;1.70;;;;;;;;;;5053778;28;20403;-54
2021/12/16 13:26:23;;;;;;;1.83;1.42;;;;;;;;;;5066164;28;20032;-53
2021/12/16 13:29:20;;;;;;;2.17;1.60;;;;;;;;;;5063626;28;20361;-53
2021/12/16 13:32:04;;;;;;;2.38;1.90;;;;;;;;;;5067569;28;20063;-54
2021/12/16 13:34:42;;;;;;;2.10;1.80;;;;;;;;;;5065902;28;20028;-54
2021/12/16 13:37:13;;;;;;;2.42;2.00;;;;;;;;;;5057933;28;20034;-54
2021/12/16 13:39:45;;;;;;;2.22;1.63;;;;;;;;;;5068806;28;20115;-53
2021/12/16 13:42:15;;;;;;;3.53;2.35;;;;;;;;;;5076086;28;20020;-54
2021/12/16 13:44:47;;;;;;;4.05;2.67;;;;;;;;;;5069686;28;20098;-54
2021/12/16 14:05:17;;;;;;;7.22;4.53;;;;;;;;;;5067001;28;20323;-57
2021/12/16 14:10:10;;;;;;;8.50;5.05;;;;;;;;;;5059135;28;20031;-57
2021/12/16 14:23:14;;;;;;;4.25;3.10;;;;;;;;;;5066990;28;20046;-56
2021/12/16 14:50:10;;;;;;;1.83;1.33;;;;;;;;;;5068059;28;20028;-55
2021/12/16 14:52:37;;;;;;;1.80;1.40;;;;;;;;;;5068077;28;20035;-55
2021/12/16 14:55:08;;;;;;;1.77;1.50;;;;;;;;;;5067610;28;20035;-55
2021/12/16 14:57:38;;;;;;;2.38;1.60;;;;;;;;;;5065173;28;20119;-54
2021/12/16 15:00:09;;;;;;;2.03;1.50;;;;;;;;;;5062649;28;20116;-55
2021/12/16 15:02:38;;;;;;;4.28;1.83;;;;;;;;;;5068410;28;20500;-56
2021/12/16 15:05:20;;;;;;;1.55;1.42;;;;;;;;;;5078358;28;20782;-53
2021/12/16 15:07:46;;;;;;;1.85;1.60;;;;;;;;;;5068436;28;20024;-55
2021/12/16 15:10:15;;;;;;;2.33;1.65;;;;;;;;;;5064784;28;20017;-54
2021/12/16 15:12:51;;;;;;;1.83;1.58;;;;;;;;;;5066853;28;20027;-54
2021/12/16 15:43:03;;;;;;;4.05;2.70;;;;;;;;;;5003437;28;20029;-55
2021/12/16 15:45:31;;;;;;;3.10;2.50;;;;;;;;;;5036716;28;20045;-55
2021/12/16 15:48:14;;;;;;;3.05;2.33;;;;;;;;;;5044973;28;20104;-55
2021/12/16 15:50:46;;;;;;;4.00;2.50;;;;;;;;;;5044874;28;20431;-55
2021/12/16 15:53:16;;;;;;;5.07;3.33;;;;;;;;;;5045320;28;20033;-55
2021/12/16 15:55:52;;;;;;;5.18;3.63;;;;;;;;;;5044797;28;20387;-53
2021/12/16 15:58:21;;;;;;;4.65;3.45;;;;;;;;;;5044835;28;20495;-53
2021/12/16 16:00:50;;;;;;;5.20;3.40;;;;;;;;;;5044279;28;20029;-54
2021/12/16 16:03:17;;;;;;;4.55;3.10;;;;;;;;;;5045080;28;20021;-55
2021/12/16 16:05:46;;;;;;;4.22;2.80;;;;;;;;;;5044402;28;20044;-54
2021/12/16 16:08:14;;;;;;;6.10;3.47;;;;;;;;;;5044640;28;20408;-52
2021/12/16 16:10:41;;;;;;;4.63;2.85;;;;;;;;;;5044752;28;20020;-55
2021/12/16 16:13:13;;;;;;;4.20;2.85;;;;;;;;;;5044719;28;20060;-55
2021/12/16 16:15:40;;;;;;;4.57;2.63;;;;;;;;;;5044053;28;20036;-54
2021/12/16 16:18:14;;;;;;;5.32;3.10;;;;;;;;;;5043669;28;20028;-54
2021/12/16 16:20:45;;;;;;;4.90;3.25;;;;;;;;;;5044706;28;20025;-54
2021/12/16 16:23:12;;;;;;;6.97;4.15;;;;;;;;;;5044719;28;20025;-54
2021/12/16 16:25:40;;;;;;;9.25;5.10;;;;;;;;;;5044673;28;20057;-54
2021/12/16 16:28:08;;;;;;;7.20;4.50;;;;;;;;;;5044640;28;20021;-54
2021/12/16 16:30:34;;;;;;;6.22;3.78;;;;;;;;;;5044824;28;20544;-52
2021/12/16 16:33:05;;;;;;;7.10;3.88;;;;;;;;;;5045306;28;20199;-53
2021/12/16 16:35:33;;;;;;;4.60;3.13;;;;;;;;;;5044880;28;20021;-54
2021/12/16 16:38:21;;;;;;;4.55;3.35;;;;;;;;;;5044274;28;20040;-54
2021/12/16 16:40:49;;;;;;;5.25;3.65;;;;;;;;;;5044309;28;20143;-54
2021/12/16 16:43:17;;;;;;;6.70;4.32;;;;;;;;;;5044590;28;20342;-55
2021/12/16 16:45:44;;;;;;;5.63;4.05;;;;;;;;;;5044061;28;20082;-54
2021/12/16 16:48:27;;;;;;;5.50;3.80;;;;;;;;;;5044217;28;20454;-54
2021/12/16 16:51:10;;;;;;;5.28;3.55;;;;;;;;;;5044592;28;20021;-55
2021/12/16 16:53:45;;;;;;;5.82;3.67;;;;;;;;;;5044192;28;20033;-55
2021/12/16 16:56:12;;;;;;;4.30;3.38;;;;;;;;;;5043937;28;20028;-54
2021/12/16 16:58:38;;;;;;;5.00;3.05;;;;;;;;;;5044183;28;20052;-54
2021/12/16 17:01:05;;;;;;;4.97;3.13;;;;;;;;;;5044904;28;20667;-54
2021/12/16 17:03:31;;;;;;;4.45;3.08;;;;;;;;;;5044421;28;20025;-55
2021/12/16 17:06:02;;;;;;;5.72;3.72;;;;;;;;;;5044140;28;20029;-54
2021/12/16 17:08:38;;;;;;;5.28;3.40;;;;;;;;;;5044239;28;20020;-54
2021/12/16 17:11:08;;;;;;;7.13;3.70;;;;;;;;;;5044915;28;20029;-54
2021/12/16 17:13:58;;;;;;;6.38;3.42;;;;;;;;;;5048852;28;20036;-53
2021/12/16 17:19:13;;;;;;;6.10;3.58;;;;;;;;;;5048179;28;20561;-54
2021/12/16 17:21:40;;;;;;;4.40;2.95;;;;;;;;;;5047692;28;20060;-55
2021/12/16 17:24:06;;;;;;;5.28;3.53;;;;;;;;;;5047428;28;20041;-54
2021/12/16 17:26:32;;;;;;;5.53;4.00;;;;;;;;;;5048066;28;20135;-51
2021/12/16 17:29:01;;;;;;;6.80;4.10;;;;;;;;;;5047845;28;20104;-54
2021/12/16 17:31:38;;;;;;;6.35;3.90;;;;;;;;;;5047491;28;20021;-54
2021/12/16 17:34:07;;;;;;;5.88;4.10;;;;;;;;;;5048372;28;20106;-54
2021/12/16 17:36:34;;;;;;;7.03;4.28;;;;;;;;;;5047824;28;20041;-55
2021/12/16 17:39:12;;;;;;;7.20;4.72;;;;;;;;;;5048104;28;20039;-54
2021/12/16 17:41:39;;;;;;;7.20;4.55;;;;;;;;;;5047181;28;20039;-54
2021/12/16 17:44:12;;;;;;;7.47;4.80;;;;;;;;;;5047953;28;20032;-55
2021/12/16 17:46:39;;;;;;;8.65;5.38;;;;;;;;;;5046757;28;20389;-55
2021/12/16 17:49:06;;;;;;;6.88;4.53;;;;;;;;;;5047723;28;20471;-55
2021/12/16 17:51:33;;;;;;;6.03;4.43;;;;;;;;;;5047716;28;20013;-54
2021/12/16 17:54:02;;;;;;;5.13;4.18;;;;;;;;;;5047449;28;20098;-54
2021/12/16 17:56:28;;;;;;;7.50;4.43;;;;;;;;;;5046995;28;20063;-54
2021/12/16 17:58:56;;;;;;;7.15;4.38;;;;;;;;;;5047670;28;20046;-53
2021/12/16 18:01:23;;;;;;;5.28;3.80;;;;;;;;;;5046769;28;20032;-53
2021/12/16 18:03:56;;;;;;;6.40;4.03;;;;;;;;;;5047383;28;20455;-55
2021/12/16 18:06:26;;;;;;;4.50;3.70;;;;;;;;;;5046786;28;20032;-53
2021/12/16 18:09:18;;;;;;;5.97;4.47;;;;;;;;;;5046999;28;20063;-54
2021/12/16 18:11:49;;;;;;;6.60;4.63;;;;;;;;;;5045497;28;20060;-54
2021/12/16 18:14:19;;;;;;;6.07;4.53;;;;;;;;;;5046761;28;20338;-55
2021/12/16 18:16:47;;;;;;;5.80;4.03;;;;;;;;;;5046391;28;20021;-55
2021/12/16 18:19:16;;;;;;;5.22;3.92;;;;;;;;;;5047097;28;20048;-55
2021/12/16 18:21:43;;;;;;;6.10;4.20;;;;;;;;;;5046505;28;20045;-52
2021/12/16 18:24:10;;;;;;;5.30;3.78;;;;;;;;;;5045585;28;20097;-54
2021/12/16 18:26:40;;;;;;;4.55;3.55;;;;;;;;;;5046477;28;20155;-55
2021/12/16 18:29:07;;;;;;;5.25;3.67;;;;;;;;;;5046684;28;20036;-54
2021/12/16 18:31:35;;;;;;;4.43;3.53;;;;;;;;;;5047160;28;20021;-54
2021/12/16 18:34:10;;;;;;;5.75;3.95;;;;;;;;;;5047369;28;20021;-55
2021/12/16 18:36:37;;;;;;;5.72;4.20;;;;;;;;;;5046273;28;20407;-53
2021/12/16 18:39:12;;;;;;;5.72;4.10;;;;;;;;;;5046949;28;20124;-55
2021/12/16 18:41:41;;;;;;;6.95;4.30;;;;;;;;;;5046208;28;20021;-54
2021/12/16 18:44:10;;;;;;;6.68;4.43;;;;;;;;;;5046403;28;20033;-53
2021/12/16 18:46:40;;;;;;;6.60;4.43;;;;;;;;;;5045988;28;20032;-55
2021/12/16 18:49:19;;;;;;;6.18;3.92;;;;;;;;;;5046391;28;20025;-54
2021/12/16 18:51:59;;;;;;;7.22;4.47;;;;;;;;;;5046055;28;20017;-54
2021/12/16 18:54:28;;;;;;;9.07;6.35;;;;;;;;;;5044859;28;20107;-53
2021/12/16 18:56:56;;;;;;;9.75;6.80;;;;;;;;;;5045124;28;20478;-55
2021/12/16 18:59:24;;;;;;;7.38;5.32;;;;;;;;;;5062366;28;20017;-54
2021/12/16 19:01:54;;;;;;;7.10;5.25;;;;;;;;;;5065489;28;20134;-56
2021/12/16 19:04:23;;;;;;;7.60;5.28;;;;;;;;;;5063842;28;20082;-56
2021/12/16 19:06:51;;;;;;;6.55;4.80;;;;;;;;;;5064594;28;20031;-55
2021/12/16 19:09:18;;;;;;;7.05;5.45;;;;;;;;;;5064919;28;20028;-56